Time;durP1;ratioP1;P1;durP2;ratioP2;P2;SDS_P1;SDS_P2;PMS_P1;PMS_P2;Temp;Humidity;BMP_temperature;BMP_pressure;BME280_temperature;BME280_humidity;BME280_pressure;Samples;Min_cycle;Max_cycle;Signal;HPM_P1;HPM_P2
2023/06/20 00:01:48;;;;;;;10.55;6.30;;;;;;;17.68;100.00;101347.63;5096074;28;20034;-74
2023/06/20 00:04:13;;;;;;;10.65;6.20;;;;;;;17.67;100.00;101342.41;5095983;28;20452;-73
2023/06/20 00:06:38;;;;;;;13.70;7.85;;;;;;;17.67;100.00;101337.03;5096043;28;20111;-73
2023/06/20 00:09:04;;;;;;;10.00;6.93;;;;;;;17.68;100.00;101341.41;5095799;28;20513;-73
2023/06/20 00:11:29;;;;;;;13.20;7.72;;;;;;;17.68;100.00;101338.72;5096233;28;20364;-73
2023/06/20 00:13:54;;;;;;;12.48;7.45;;;;;;;17.67;100.00;101343.25;5095985;28;20452;-73
2023/06/20 00:16:20;;;;;;;16.38;7.43;;;;;;;17.68;100.00;101341.41;5095697;28;20543;-73
2023/06/20 00:18:53;;;;;;;13.32;7.38;;;;;;;17.68;100.00;101344.09;5095599;28;20507;-73
2023/06/20 00:21:20;;;;;;;16.95;7.35;;;;;;;17.67;100.00;101348.63;5095788;28;20039;-73
2023/06/20 00:23:46;;;;;;;10.40;7.57;;;;;;;17.68;100.00;101346.78;5095234;28;20040;-74
2023/06/20 00:26:11;;;;;;;11.77;7.80;;;;;;;17.68;100.00;101350.31;5095664;28;20425;-73
2023/06/20 00:28:36;;;;;;;11.75;7.65;;;;;;;17.68;100.00;101346.78;5095425;28;20603;-72
2023/06/20 00:31:02;;;;;;;9.90;7.43;;;;;;;17.69;100.00;101345.75;5077977;28;20036;-72
2023/06/20 00:33:27;;;;;;;13.30;8.27;;;;;;;17.68;100.00;101341.41;5095176;28;20032;-72
2023/06/20 00:35:52;;;;;;;11.43;7.82;;;;;;;17.66;100.00;101338.03;5095025;28;20024;-73
2023/06/20 00:38:18;;;;;;;12.93;8.50;;;;;;;17.65;100.00;101337.19;5095259;28;20064;-73
2023/06/20 00:40:43;;;;;;;12.30;8.65;;;;;;;17.63;100.00;101329.31;5095408;28;20107;-72
2023/06/20 00:43:08;;;;;;;15.93;9.02;;;;;;;17.60;100.00;101331.47;5095236;28;20119;-73
2023/06/20 00:45:34;;;;;;;14.30;8.90;;;;;;;17.58;100.00;101331.66;5095388;28;20081;-72
2023/06/20 00:48:02;;;;;;;13.18;8.45;;;;;;;17.56;100.00;101322.94;5094758;28;20093;-73
2023/06/20 00:50:29;;;;;;;13.32;8.90;;;;;;;17.55;100.00;101325.81;5095325;28;20460;-72
2023/06/20 00:53:04;;;;;;;13.43;9.40;;;;;;;17.54;100.00;101321.41;5095091;28;20032;-72
2023/06/20 00:55:31;;;;;;;14.52;9.63;;;;;;;17.54;100.00;101316.03;5095457;28;20036;-72
2023/06/20 00:57:58;;;;;;;14.18;9.20;;;;;;;17.51;100.00;101314.56;5094968;28;20032;-73
2023/06/20 01:00:25;;;;;;;16.25;10.57;;;;;;;17.50;100.00;101315.56;5095293;28;20489;-73
2023/06/20 01:02:53;;;;;;;12.00;8.73;;;;;;;17.47;100.00;101310.53;5077143;28;20122;-73
2023/06/20 01:05:26;;;;;;;16.85;9.80;;;;;;;17.49;100.00;101302.28;5076630;28;20077;-74
2023/06/20 01:08:02;;;;;;;15.82;9.38;;;;;;;17.48;100.00;101304.16;5094601;28;20051;-73
2023/06/20 01:10:42;;;;;;;17.00;9.27;;;;;;;17.44;100.00;101302.81;5094349;28;20050;-72
2023/06/20 01:13:43;;;;;;;13.35;9.32;;;;;;;17.40;100.00;101301.47;5094836;28;20028;-73
2023/06/20 01:16:31;;;;;;;15.05;10.10;;;;;;;17.35;100.00;101309.22;5094813;28;20055;-73
2023/06/20 01:19:34;;;;;;;16.05;9.57;;;;;;;17.32;100.00;101312.25;5094637;28;20048;-72
2023/06/20 01:22:08;;;;;;;14.02;9.45;;;;;;;17.30;100.00;101314.25;5094132;28;20035;-73
2023/06/20 01:24:46;;;;;;;13.77;10.18;;;;;;;17.25;100.00;101312.94;5094619;28;20093;-73
2023/06/20 01:27:18;;;;;;;13.50;9.45;;;;;;;17.23;100.00;101309.59;5094398;28;20384;-73
2023/06/20 01:30:00;;;;;;;17.13;9.18;;;;;;;17.21;100.00;101290.09;5094411;28;20380;-72
2023/06/20 01:32:27;;;;;;;13.02;9.15;;;;;;;17.21;100.00;101300.00;5094260;28;20024;-72
2023/06/20 01:35:00;;;;;;;14.50;9.48;;;;;;;17.18;100.00;101293.13;5094082;28;20032;-72
2023/06/20 01:37:34;;;;;;;14.30;9.13;;;;;;;17.13;100.00;101298.16;5094265;28;20038;-72
2023/06/20 01:40:02;;;;;;;14.75;9.68;;;;;;;17.06;100.00;101292.66;5094820;28;20119;-72
2023/06/20 01:42:29;;;;;;;15.18;9.15;;;;;;;17.03;100.00;101301.06;5094308;28;20063;-73
2023/06/20 01:44:59;;;;;;;15.18;10.32;;;;;;;16.99;100.00;101288.97;5094242;28;20115;-74
2023/06/20 01:47:26;;;;;;;14.65;9.60;;;;;;;16.96;100.00;101292.00;5093531;28;20067;-73
2023/06/20 01:49:54;;;;;;;14.15;9.25;;;;;;;16.94;100.00;101298.53;5093772;28;20047;-72
2023/06/20 01:52:22;;;;;;;12.43;9.57;;;;;;;16.90;100.00;101290.81;5094102;28;20036;-73
2023/06/20 01:54:49;;;;;;;14.95;9.90;;;;;;;16.89;100.00;101294.50;5093956;28;20055;-72
2023/06/20 01:57:17;;;;;;;15.48;9.43;;;;;;;16.89;100.00;101283.75;5093825;28;20375;-72
2023/06/20 01:59:44;;;;;;;12.55;9.57;;;;;;;16.87;100.00;101290.34;5093724;28;20042;-72
2023/06/20 02:02:11;;;;;;;11.43;9.48;;;;;;;16.84;100.00;101286.09;5093678;28;20059;-73
2023/06/20 02:04:37;;;;;;;13.85;9.23;;;;;;;16.81;100.00;101285.56;5094064;28;20039;-72
2023/06/20 02:07:04;;;;;;;11.27;9.05;;;;;;;16.80;100.00;101281.22;5094118;28;20032;-72
2023/06/20 02:09:30;;;;;;;11.23;9.15;;;;;;;16.79;100.00;101280.38;5093830;28;20032;-72
2023/06/20 02:11:56;;;;;;;15.15;9.27;;;;;;;16.80;100.00;101284.75;5093529;28;20057;-71
2023/06/20 02:14:24;;;;;;;12.20;8.60;;;;;;;16.81;100.00;101294.50;5093541;28;20028;-72
2023/06/20 02:16:50;;;;;;;13.00;9.05;;;;;;;16.81;100.00;101289.13;5093352;28;20036;-73
2023/06/20 02:19:16;;;;;;;13.63;8.60;;;;;;;16.82;100.00;101284.56;5093955;28;20048;-71
2023/06/20 02:21:45;;;;;;;12.30;8.75;;;;;;;16.82;100.00;101284.56;5093336;28;20028;-72
2023/06/20 02:24:15;;;;;;;11.27;8.32;;;;;;;16.84;100.00;101285.22;5093377;28;20039;-72
2023/06/20 02:26:44;;;;;;;15.20;9.02;;;;;;;16.84;100.00;101279.88;5093797;28;20063;-72
2023/06/20 02:29:11;;;;;;;13.25;8.02;;;;;;;16.85;100.00;101281.56;5093229;28;20107;-72
2023/06/20 02:31:40;;;;;;;14.43;8.20;;;;;;;16.86;100.00;101280.56;5092970;28;20497;-72
2023/06/20 02:34:09;;;;;;;12.07;7.85;;;;;;;16.86;100.00;101272.50;5092827;28;20078;-72
2023/06/20 02:36:35;;;;;;;12.13;8.30;;;;;;;16.86;100.00;101270.63;5093822;28;20126;-73
2023/06/20 02:39:01;;;;;;;12.30;8.10;;;;;;;16.84;100.00;101261.06;5093183;28;20468;-72
2023/06/20 02:41:27;;;;;;;14.88;8.43;;;;;;;16.82;100.00;101269.28;5093254;28;20031;-73
2023/06/20 02:43:52;;;;;;;12.30;8.02;;;;;;;16.80;100.00;101265.94;5093168;28;20298;-73
2023/06/20 02:46:56;;;;;;;11.85;7.93;;;;;;;16.79;100.00;101266.94;5093220;28;20083;-73
2023/06/20 02:49:57;;;;;;;13.13;8.60;;;;;;;16.80;100.00;101257.03;5093694;28;20034;-73
2023/06/20 02:52:40;;;;;;;13.43;7.35;;;;;;;16.81;100.00;101254.19;5093211;28;20036;-73
2023/06/20 02:55:16;;;;;;;14.18;8.55;;;;;;;16.83;100.00;101245.97;5093097;28;20115;-73
2023/06/20 02:57:50;;;;;;;9.80;7.65;;;;;;;16.84;100.00;101247.63;5094385;28;20088;-72
2023/06/20 03:00:16;;;;;;;15.38;8.50;;;;;;;16.85;100.00;101252.00;5097391;28;20033;-72
2023/06/20 03:02:58;;;;;;;13.02;8.57;;;;;;;16.85;100.00;101252.00;5097017;28;20060;-72
2023/06/20 03:05:25;;;;;;;12.88;8.48;;;;;;;16.84;100.00;101251.16;5097133;28;20028;-72
2023/06/20 03:07:51;;;;;;;11.23;7.88;;;;;;;16.85;100.00;101249.31;5097595;28;20059;-72
2023/06/20 03:10:17;;;;;;;17.10;8.30;;;;;;;16.87;100.00;101255.41;5096908;28;20165;-73
2023/06/20 03:12:43;;;;;;;12.35;7.55;;;;;;;16.88;100.00;101249.84;5096612;28;20060;-72
2023/06/20 03:15:08;;;;;;;14.52;7.95;;;;;;;16.90;100.00;101257.75;5096848;28;20032;-72
2023/06/20 03:17:35;;;;;;;12.32;7.50;;;;;;;16.91;100.00;101251.34;5096534;28;20036;-72
2023/06/20 03:20:09;;;;;;;10.35;7.68;;;;;;;16.91;100.00;101254.88;5079010;28;20032;-72
2023/06/20 03:22:35;;;;;;;10.85;7.68;;;;;;;16.91;100.00;101252.19;5080273;28;20032;-72
2023/06/20 03:25:00;;;;;;;11.32;8.10;;;;;;;16.92;100.00;101261.91;5096317;28;20085;-73
2023/06/20 03:27:25;;;;;;;13.18;7.97;;;;;;;16.92;100.00;101256.53;5096545;28;20507;-72
2023/06/20 03:29:51;;;;;;;11.20;7.65;;;;;;;16.91;100.00;101257.56;5096498;28;20387;-72
2023/06/20 03:32:16;;;;;;;10.15;7.80;;;;;;;16.92;100.00;101255.72;5096683;28;20038;-72
2023/06/20 03:34:41;;;;;;;14.38;7.47;;;;;;;16.93;100.00;101246.66;5096271;28;20471;-73
2023/06/20 03:37:07;;;;;;;11.57;8.02;;;;;;;16.94;100.00;101255.53;5096845;28;20032;-73
2023/06/20 03:39:32;;;;;;;12.75;8.32;;;;;;;16.95;100.00;101254.53;5096379;28;20067;-72
2023/06/20 03:41:57;;;;;;;10.82;8.15;;;;;;;16.95;100.00;101258.06;5096020;28;20040;-72
2023/06/20 03:44:23;;;;;;;11.60;8.00;;;;;;;16.98;100.00;101255.03;5096281;28;20077;-72
2023/06/20 03:46:48;;;;;;;12.90;8.27;;;;;;;16.99;100.00;101255.84;5095886;28;20036;-72
2023/06/20 03:49:14;;;;;;;10.73;7.97;;;;;;;17.02;100.00;101260.91;5096111;28;20031;-72
2023/06/20 03:51:39;;;;;;;12.02;7.85;;;;;;;17.04;100.00;101264.25;5096148;28;20039;-72
2023/06/20 03:54:05;;;;;;;12.70;7.70;;;;;;;17.06;100.00;101262.22;5096240;28;20028;-72
2023/06/20 03:56:30;;;;;;;11.20;7.90;;;;;;;17.08;100.00;101265.59;5096393;28;20076;-72
2023/06/20 03:58:56;;;;;;;10.38;8.27;;;;;;;17.10;100.00;101260.88;5095902;28;20119;-72
2023/06/20 04:01:24;;;;;;;16.98;8.75;;;;;;;17.12;100.00;101266.91;5095916;28;20032;-72
2023/06/20 04:03:50;;;;;;;11.80;8.20;;;;;;;17.15;100.00;101266.56;5095850;28;20517;-71
2023/06/20 04:06:16;;;;;;;13.15;8.40;;;;;;;17.15;100.00;101266.56;5095632;28;20031;-73
2023/06/20 04:08:42;;;;;;;11.13;8.30;;;;;;;17.16;100.00;101272.81;5095296;28;20028;-73
2023/06/20 04:11:08;;;;;;;11.32;8.10;;;;;;;17.16;100.00;101262.88;5095692;28;20068;-73
2023/06/20 04:13:33;;;;;;;10.35;7.85;;;;;;;17.18;100.00;101266.25;5095781;28;20400;-72
2023/06/20 04:15:59;;;;;;;12.25;8.30;;;;;;;17.17;100.00;101264.56;5095882;28;20032;-72
2023/06/20 04:18:24;;;;;;;12.02;8.05;;;;;;;17.18;100.00;101260.00;5095666;28;20366;-72
2023/06/20 04:20:49;;;;;;;13.80;8.07;;;;;;;17.21;100.00;101256.97;5096257;28;20361;-72
2023/06/20 04:23:15;;;;;;;11.45;7.90;;;;;;;17.20;100.00;101250.78;5095540;28;20453;-72
2023/06/20 04:25:40;;;;;;;11.40;7.75;;;;;;;17.21;100.00;101254.28;5095901;28;20035;-73
2023/06/20 04:28:06;;;;;;;11.80;8.25;;;;;;;17.23;100.00;101249.59;5095428;28;20051;-72
2023/06/20 04:30:31;;;;;;;15.63;8.05;;;;;;;17.25;100.00;101256.44;5095670;28;20426;-73
2023/06/20 04:32:57;;;;;;;13.23;7.63;;;;;;;17.28;100.00;101248.03;5095286;28;20119;-72
2023/06/20 04:35:22;;;;;;;12.82;7.65;;;;;;;17.30;100.00;101252.41;5095367;28;20375;-72
2023/06/20 04:37:51;;;;;;;13.30;7.53;;;;;;;17.34;100.00;101251.88;5094943;28;20205;-73
2023/06/20 04:40:17;;;;;;;13.15;8.00;;;;;;;17.40;100.00;101251.19;5095424;28;20036;-73
2023/06/20 04:42:42;;;;;;;13.70;7.68;;;;;;;17.43;100.00;101253.53;5094842;28;20036;-73
2023/06/20 04:45:08;;;;;;;10.82;7.75;;;;;;;17.49;100.00;101243.94;5077423;28;20071;-73
2023/06/20 04:47:34;;;;;;;9.52;7.10;;;;;;;17.57;100.00;101240.34;5095430;28;20039;-73
2023/06/20 04:50:03;;;;;;;14.40;7.50;;;;;;;17.63;100.00;101237.81;5094907;28;20036;-72
2023/06/20 04:52:30;;;;;;;10.70;7.45;;;;;;;17.70;100.00;101237.13;5094690;28;20035;-73
2023/06/20 04:55:02;;;;;;;12.90;8.35;;;;;;;17.77;100.00;101227.31;5094852;28;20460;-71
2023/06/20 04:57:31;;;;;;;12.45;7.57;;;;;;;17.85;100.00;101231.81;5094873;28;20114;-73
2023/06/20 04:59:56;;;;;;;11.45;8.15;;;;;;;17.92;100.00;101240.91;5095178;28;20028;-73
2023/06/20 05:02:23;;;;;;;10.65;7.50;;;;;;;17.99;100.00;101228.41;5094840;28;20077;-73
2023/06/20 05:04:48;;;;;;;11.05;7.53;;;;;;;18.09;100.00;101225.47;5094993;28;20040;-73
2023/06/20 05:07:14;;;;;;;11.52;7.28;;;;;;;18.17;100.00;101221.88;5094559;28;20077;-73
2023/06/20 05:09:39;;;;;;;11.55;7.25;;;;;;;18.26;100.00;101221.63;5094678;28;20115;-73
2023/06/20 05:12:05;;;;;;;12.40;7.35;;;;;;;18.37;100.00;101220.34;5094258;28;20035;-73
2023/06/20 05:14:30;;;;;;;10.27;7.82;;;;;;;18.50;100.00;101225.16;5094489;28;20047;-73
2023/06/20 05:16:56;;;;;;;11.82;7.50;;;;;;;18.59;100.00;101220.53;5094225;28;20036;-72
2023/06/20 05:19:21;;;;;;;12.40;7.30;;;;;;;18.68;100.00;101222.13;5094683;28;20059;-73
2023/06/20 05:21:47;;;;;;;11.68;7.30;;;;;;;18.77;100.00;101207.53;5093397;28;20381;-74
2023/06/20 05:24:12;;;;;;;8.68;6.95;;;;;;;18.86;100.00;101216.41;5094374;28;20028;-75
2023/06/20 05:26:37;;;;;;;12.23;7.63;;;;;;;18.96;100.00;101225.06;5094464;28;20035;-74
2023/06/20 05:29:03;;;;;;;10.68;7.38;;;;;;;19.02;100.00;101218.09;5094115;28;20032;-75
2023/06/20 05:31:29;;;;;;;11.35;7.13;;;;;;;19.09;100.00;101219.00;5094047;28;20058;-75
2023/06/20 05:33:54;;;;;;;16.58;8.07;;;;;;;19.16;100.00;101217.25;5076214;28;20107;-78
2023/06/20 05:36:20;;;;;;;13.48;8.00;;;;;;;19.24;100.00;101210.09;5093765;28;20052;-78
2023/06/20 05:38:48;;;;;;;17.25;8.20;;;;;;;19.29;100.00;101211.19;5076069;28;20032;-77
2023/06/20 05:41:14;;;;;;;8.95;7.57;;;;;;;19.34;100.00;101199.84;5075563;28;20032;-77
2023/06/20 05:43:39;;;;;;;12.27;8.13;;;;;;;19.40;100.00;101207.16;5075637;28;20040;-76
2023/06/20 05:46:05;;;;;;;11.40;8.02;;;;;;;19.46;100.00;101198.31;5093962;28;20164;-76
2023/06/20 05:48:31;;;;;;;18.45;8.23;;;;;;;19.54;100.00;101200.06;5093605;28;20038;-76
2023/06/20 05:50:56;;;;;;;11.57;8.35;;;;;;;19.60;100.00;101199.34;5093638;28;20448;-80
2023/06/20 05:53:23;;;;;;;10.88;7.45;;;;;;;19.65;100.00;101188.78;5093227;28;20034;-79
2023/06/20 05:55:50;;;;;;;13.77;8.05;;;;;;;19.73;100.00;101195.94;5076170;28;20039;-78
2023/06/20 05:58:16;;;;;;;14.40;8.02;;;;;;;19.81;100.00;101192.31;5093431;28;20028;-79
2023/06/20 06:00:42;;;;;;;13.70;8.18;;;;;;;19.93;100.00;101200.72;5093339;28;20028;-79
2023/06/20 06:03:08;;;;;;;17.45;7.97;;;;;;;20.00;100.00;101199.75;5075600;28;20031;-82
2023/06/20 06:05:33;;;;;;;12.23;8.63;;;;;;;20.06;100.00;101201.72;5075396;28;20028;-77
2023/06/20 06:07:59;;;;;;;16.20;8.07;;;;;;;20.14;100.00;101202.59;5092917;28;20036;-82
2023/06/20 06:10:25;;;;;;;9.35;8.02;;;;;;;20.18;100.00;101217.41;5093617;28;20375;-80
2023/06/20 06:12:50;;;;;;;12.52;7.93;;;;;;;20.23;100.00;101204.16;5093557;28;20035;-80
2023/06/20 06:15:16;;;;;;;15.70;8.40;;;;;;;20.32;100.00;101207.53;5093200;28;20028;-77
2023/06/20 06:17:43;;;;;;;12.65;8.45;;;;;;;20.41;100.00;101212.63;5092876;28;20034;-76
2023/06/20 06:20:12;;;;;;;14.00;8.00;;;;;;;20.50;100.00;101205.22;5093321;28;20032;-76
2023/06/20 06:22:38;;;;;;;11.05;7.90;;;;;;;20.64;100.00;101205.31;5093441;28;20380;-75
2023/06/20 06:25:07;;;;;;;9.70;7.95;;;;;;;20.75;100.00;101200.22;5093411;28;20115;-76
2023/06/20 06:27:34;;;;;;;13.35;8.35;;;;;;;20.88;100.00;101202.16;5092927;28;20478;-76
2023/06/20 06:29:59;;;;;;;8.85;7.75;;;;;;;21.02;100.00;101196.84;5092963;28;20028;-76
2023/06/20 06:32:25;;;;;;;10.77;7.95;;;;;;;21.13;100.00;101196.28;5092777;28;20361;-76
2023/06/20 06:34:52;;;;;;;15.98;8.50;;;;;;;21.20;100.00;101183.63;5092827;28;20039;-76
2023/06/20 06:37:17;;;;;;;16.75;8.50;;;;;;;21.28;100.00;101188.03;5093144;28;20032;-75
2023/06/20 06:39:43;;;;;;;12.80;8.63;;;;;;;21.38;100.00;101188.50;5092945;28;20030;-76
2023/06/20 06:42:09;;;;;;;13.48;8.50;;;;;;;21.49;100.00;101192.47;5092750;28;20032;-76
2023/06/20 06:44:34;;;;;;;12.77;8.13;;;;;;;21.59;100.00;101192.13;5093558;28;20032;-76
2023/06/20 06:47:01;;;;;;;12.30;8.50;;;;;;;21.67;100.00;101181.09;5074936;28;20483;-76
2023/06/20 06:49:27;;;;;;;15.88;8.60;;;;;;;21.74;100.00;101173.00;5092762;28;20076;-75
2023/06/20 06:51:53;;;;;;;15.05;9.02;;;;;;;21.70;100.00;101171.75;5074827;28;20127;-74
2023/06/20 06:54:19;;;;;;;14.25;8.65;;;;;;;21.72;100.00;101172.38;5092652;28;20426;-75
2023/06/20 06:56:45;;;;;;;10.98;8.60;;;;;;;21.72;100.00;101170.50;5074683;28;20118;-75
2023/06/20 06:59:11;;;;;;;18.58;9.30;;;;;;;21.72;100.00;101159.69;5092710;28;20028;-76
2023/06/20 07:01:36;;;;;;;13.73;9.27;;;;;;;21.73;100.00;101150.50;5093022;28;20376;-75
2023/06/20 07:04:02;;;;;;;11.25;8.88;;;;;;;21.83;100.00;101148.22;5092611;28;20043;-75
2023/06/20 07:06:27;;;;;;;21.92;8.90;;;;;;;21.93;100.00;101147.84;5092335;28;20487;-76
2023/06/20 07:08:52;;;;;;;20.98;9.55;;;;;;;22.01;100.00;101135.97;5074405;28;20505;-75
2023/06/20 07:11:18;;;;;;;16.30;8.80;;;;;;;22.06;100.00;101130.72;5093009;28;20039;-75
2023/06/20 07:13:43;;;;;;;15.63;9.40;;;;;;;22.05;100.00;101144.50;5092277;28;20056;-73
2023/06/20 07:16:09;;;;;;;14.43;9.55;;;;;;;21.98;100.00;101139.09;5074722;28;20124;-74
2023/06/20 07:18:34;;;;;;;21.95;9.82;;;;;;;21.99;100.00;101149.72;5075216;28;20048;-74
2023/06/20 07:21:02;;;;;;;11.07;8.75;;;;;;;22.16;100.00;101152.00;5093456;28;20395;-74
2023/06/20 07:23:28;;;;;;;15.15;9.50;;;;;;;22.29;100.00;101153.91;5093117;28;20028;-74
2023/06/20 07:25:53;;;;;;;14.68;9.40;;;;;;;22.54;100.00;101159.50;5092792;28;20032;-74
2023/06/20 07:28:19;;;;;;;14.07;9.00;;;;;;;22.81;100.00;101157.59;5092639;28;20032;-73
2023/06/20 07:30:44;;;;;;;12.63;9.15;;;;;;;23.04;100.00;101159.81;5092850;28;20036;-74
2023/06/20 07:33:10;;;;;;;14.43;10.05;;;;;;;23.12;100.00;101158.75;5074697;28;20070;-74
2023/06/20 07:35:35;;;;;;;13.68;10.15;;;;;;;22.98;100.00;101154.41;5092557;28;20047;-75
2023/06/20 07:38:00;;;;;;;15.30;9.40;;;;;;;22.86;100.00;101152.34;5093018;28;20059;-73
2023/06/20 07:40:26;;;;;;;14.73;9.30;;;;;;;22.86;100.00;101152.34;5092320;28;20103;-73
2023/06/20 07:42:51;;;;;;;15.77;9.48;;;;;;;23.06;100.00;101160.44;5092734;28;20032;-73
2023/06/20 07:45:16;;;;;;;18.63;9.63;;;;;;;23.29;100.00;101169.97;5096458;28;20107;-75
2023/06/20 07:47:42;;;;;;;19.02;8.88;;;;;;;23.57;100.00;101166.91;5096309;28;20039;-74
2023/06/20 07:50:07;;;;;;;10.77;9.55;;;;;;;23.74;100.00;101166.41;5096358;28;20375;-74
2023/06/20 07:52:33;;;;;;;12.95;8.77;;;;;;;23.90;100.00;101162.34;5096229;28;20136;-75
2023/06/20 07:55:01;;;;;;;14.65;9.00;;;;;;;24.12;100.00;101157.34;5096237;28;20032;-73
2023/06/20 07:57:27;;;;;;;12.88;9.25;;;;;;;24.35;100.00;101158.63;5096113;28;20112;-75
2023/06/20 07:59:52;;;;;;;18.08;10.60;;;;;;;24.52;100.00;101164.34;5095988;28;20035;-76
2023/06/20 08:02:17;;;;;;;15.43;10.23;;;;;;;24.68;100.00;101154.78;5096080;28;20032;-74
2023/06/20 08:04:43;;;;;;;13.38;10.15;;;;;;;24.88;100.00;101160.03;5095762;28;20107;-75
2023/06/20 08:07:08;;;;;;;11.95;8.85;;;;;;;25.06;100.00;101162.72;5096010;28;20040;-74
2023/06/20 08:09:33;;;;;;;11.88;9.23;;;;;;;25.21;100.00;101165.06;5078031;28;20036;-74
2023/06/20 08:11:59;;;;;;;14.20;9.30;;;;;;;25.35;100.00;101165.78;5096042;28;20460;-74
2023/06/20 08:14:24;;;;;;;12.77;9.05;;;;;;;25.49;100.00;101169.13;5095853;28;20087;-74
2023/06/20 08:16:49;;;;;;;18.58;10.15;;;;;;;25.61;99.56;101159.09;5096131;28;20036;-74
2023/06/20 08:19:15;;;;;;;14.32;9.25;;;;;;;25.82;100.00;101159.66;5095764;28;20357;-74
2023/06/20 08:21:40;;;;;;;13.35;10.05;;;;;;;25.92;100.00;101168.09;5095933;28;20038;-73
2023/06/20 08:24:05;;;;;;;11.07;9.30;;;;;;;26.08;100.00;101161.16;5095745;28;20388;-75
2023/06/20 08:26:31;;;;;;;11.88;8.93;;;;;;;26.23;100.00;101157.97;5095877;28;20104;-74
2023/06/20 08:28:56;;;;;;;12.93;9.45;;;;;;;26.29;97.51;101159.75;5077510;28;20107;-74
2023/06/20 08:31:22;;;;;;;11.93;9.10;;;;;;;26.37;97.21;101150.38;5095564;28;20056;-74
2023/06/20 08:33:47;;;;;;;14.35;9.02;;;;;;;26.38;94.92;101141.97;5095284;28;20045;-74
2023/06/20 08:36:12;;;;;;;13.73;9.18;;;;;;;26.51;93.51;101140.91;5095568;28;20434;-74
2023/06/20 08:38:38;;;;;;;12.82;9.65;;;;;;;26.74;93.35;101148.25;5077241;28;20217;-73
2023/06/20 08:41:07;;;;;;;13.02;10.52;;;;;;;26.92;89.58;101149.19;5095330;28;20071;-74
2023/06/20 08:43:34;;;;;;;16.27;8.73;;;;;;;27.06;94.66;101144.25;5095454;28;20032;-74
2023/06/20 08:45:59;;;;;;;11.18;8.77;;;;;;;27.30;92.86;101136.81;5095216;28;20032;-74
2023/06/20 08:48:25;;;;;;;13.98;8.80;;;;;;;27.40;88.55;101130.75;5095605;28;20032;-73
2023/06/20 08:50:51;;;;;;;9.23;8.15;;;;;;;27.69;86.84;101125.25;5095466;28;20372;-73
2023/06/20 08:53:17;;;;;;;10.30;8.52;;;;;;;27.91;85.89;101122.63;5095133;28;20035;-73
2023/06/20 08:55:44;;;;;;;12.20;9.07;;;;;;;28.21;83.02;101119.56;5094155;28;20161;-73
2023/06/20 08:58:11;;;;;;;12.25;8.65;;;;;;;28.50;79.20;101128.47;5095182;28;20040;-74
2023/06/20 09:00:38;;;;;;;12.68;8.40;;;;;;;28.75;77.75;101129.91;5094745;28;20032;-72
2023/06/20 09:03:04;;;;;;;14.13;8.77;;;;;;;29.10;75.46;101125.97;5094966;28;20189;-73
2023/06/20 09:05:40;;;;;;;9.52;6.85;;;;;;;29.11;70.21;101124.91;5076673;28;20448;-73
2023/06/20 09:08:06;;;;;;;15.45;6.50;;;;;;;29.07;73.75;101126.50;5095157;28;20024;-73
2023/06/20 09:10:31;;;;;;;12.18;7.00;;;;;;;29.32;70.36;101127.88;5094900;28;20081;-73
2023/06/20 09:12:57;;;;;;;8.18;6.38;;;;;;;29.45;66.24;101127.47;5094802;28;20093;-73
2023/06/20 09:15:26;;;;;;;6.18;5.57;;;;;;;29.82;64.16;101126.75;5094429;28;20028;-73
2023/06/20 09:17:58;;;;;;;7.13;5.40;;;;;;;30.20;63.48;101124.00;5094370;28;20039;-72
2023/06/20 09:20:28;;;;;;;6.90;5.95;;;;;;;30.35;63.16;101117.78;5094949;28;20114;-72
2023/06/20 09:22:53;;;;;;;24.83;7.18;;;;;;;30.62;64.68;101120.47;5095013;28;20044;-72
2023/06/20 09:25:24;;;;;;;9.73;5.72;;;;;;;30.87;62.28;101113.41;5094201;28;20156;-73
2023/06/20 09:27:50;;;;;;;;;;;;;;;31.03;62.52;101125.31;5077458;28;20044;-72
2023/06/20 09:30:15;;;;;;;6.70;5.07;;;;;;;31.09;57.24;101122.28;5094373;28;19916;-73
2023/06/20 09:32:42;;;;;;;5.25;4.72;;;;;;;30.46;62.85;101119.53;5094242;28;20165;-74
2023/06/20 09:35:13;;;;;;;11.13;5.30;;;;;;;30.90;59.32;101118.34;5094517;28;20081;-72
2023/06/20 09:37:43;;;;;;;5.60;5.00;;;;;;;31.24;57.54;101107.78;5094233;28;20036;-72
2023/06/20 09:40:17;;;;;;;9.75;4.93;;;;;;;31.62;62.85;101113.91;5076754;28;20032;-73
2023/06/20 09:42:45;;;;;;;10.88;5.78;;;;;;;32.12;57.86;101116.13;5093909;28;20111;-72
2023/06/20 09:45:13;;;;;;;9.38;5.97;;;;;;;32.48;57.31;101111.34;5094395;28;20070;-73
2023/06/20 09:47:40;;;;;;;7.28;6.07;;;;;;;32.56;57.02;101115.47;5075746;28;20076;-72
2023/06/20 09:50:13;;;;;;;13.30;6.22;;;;;;;32.71;55.06;101111.03;5094227;28;20028;-72
2023/06/20 09:53:09;;;;;;;10.15;6.07;;;;;;;32.95;55.24;101111.19;5094233;28;20024;-72
2023/06/20 09:55:35;;;;;;;11.35;5.95;;;;;;;32.98;52.90;101105.94;5093944;28;20027;-72
2023/06/20 09:58:03;;;;;;;7.53;6.35;;;;;;;32.86;52.84;101102.69;5093714;28;20076;-72
2023/06/20 10:00:30;;;;;;;10.98;6.70;;;;;;;32.60;54.30;101104.69;5094556;28;20090;-72
2023/06/20 10:02:59;;;;;;;10.48;6.13;;;;;;;32.66;53.69;101104.41;5093627;28;20028;-75
2023/06/20 10:05:27;;;;;;;10.53;6.70;;;;;;;32.94;53.52;101098.53;5093794;28;20024;-72
2023/06/20 10:07:57;;;;;;;8.40;6.25;;;;;;;33.03;53.08;101100.38;5093022;28;20028;-72
2023/06/20 10:10:23;;;;;;;;;;;;;;;33.20;51.91;101091.78;5095100;28;20046;-72
2023/06/20 10:12:49;;;;;;;9.93;6.00;;;;;;;33.35;52.52;101095.53;5093326;28;19912;-72
2023/06/20 10:15:15;;;;;;;12.05;6.78;;;;;;;33.19;50.56;101095.63;5093607;28;20025;-73
2023/06/20 10:17:48;;;;;;;6.65;5.95;;;;;;;33.48;49.82;101083.03;5093208;28;20114;-73
2023/06/20 10:20:28;;;;;;;7.43;5.88;;;;;;;33.74;50.83;101076.22;5093312;28;20055;-73
2023/06/20 10:22:58;;;;;;;15.98;6.20;;;;;;;33.87;48.99;101084.94;5093500;28;20352;-73
2023/06/20 10:25:25;;;;;;;6.10;5.50;;;;;;;33.67;46.71;101077.66;5093974;28;20032;-73
2023/06/20 10:28:04;;;;;;;7.38;5.40;;;;;;;33.77;48.10;101069.31;5074903;28;20133;-81
2023/06/20 10:30:53;;;;;;;4.68;4.18;;;;;;;33.87;49.15;101066.44;5093608;28;20028;-78
2023/06/20 10:33:31;;;;;;;8.30;4.03;;;;;;;33.91;47.91;101073.00;5093802;28;20032;-76
2023/06/20 10:36:03;;;;;;;6.15;4.20;;;;;;;33.96;45.45;101074.91;5093196;28;20066;-76
2023/06/20 10:38:31;;;;;;;5.75;4.00;;;;;;;34.01;46.53;101058.31;5092709;28;20028;-77
2023/06/20 10:41:22;;;;;;;5.78;4.00;;;;;;;34.32;45.51;101065.44;5092659;28;20461;-76
2023/06/20 10:43:52;;;;;;;12.23;4.03;;;;;;;34.35;45.22;101065.69;5092884;28;20385;-75
2023/06/20 10:46:21;;;;;;;6.05;3.70;;;;;;;34.30;44.92;101057.47;5092835;28;20040;-75
2023/06/20 10:48:46;;;;;;;6.03;3.67;;;;;;;34.64;45.60;101052.91;5074674;28;20028;-75
2023/06/20 10:51:12;;;;;;;5.60;4.10;;;;;;;34.50;43.81;101044.50;5093020;28;20059;-77
2023/06/20 10:53:37;;;;;;;9.88;4.30;;;;;;;34.44;43.95;101036.31;5074528;28;20024;-75
2023/06/20 10:56:03;;;;;;;4.57;3.90;;;;;;;34.33;44.95;101047.78;5093136;28;20036;-79
2023/06/20 10:58:28;;;;;;;4.68;3.92;;;;;;;34.65;45.06;101038.81;5093237;28;20193;-79
2023/06/20 11:00:54;;;;;;;7.40;4.32;;;;;;;34.99;42.39;101034.19;5074732;28;20464;-75
2023/06/20 11:03:21;;;;;;;5.47;4.07;;;;;;;34.69;44.81;101033.50;5092987;28;20040;-76
2023/06/20 11:05:52;;;;;;;6.60;4.50;;;;;;;34.55;46.46;101042.50;5093177;28;20032;-75
2023/06/20 11:08:27;;;;;;;6.85;3.92;;;;;;;35.05;45.54;101033.81;5093869;28;20066;-77
2023/06/20 11:10:54;;;;;;;7.57;4.07;;;;;;;35.08;42.79;101019.41;5093742;28;20076;-80
2023/06/20 11:13:20;;;;;;;7.95;4.00;;;;;;;35.48;41.99;101019.06;5093206;28;20040;-76
2023/06/20 11:15:46;;;;;;;7.80;4.22;;;;;;;35.60;41.43;101013.84;5092872;28;20082;-72